Garrison, Nebraska
Current Conditions -  °F | °C
As of 8:35 PM on Saturday 20 Dec 2014 (Local Time) from KOLU Reporting Station
Overcast Overcast  
Wind Chill: 27°   Ceiling: 300
Heat Index: 32°   Visibility: 3mi
Dew Point: 28°   Wind: 5mph
Humidity: 87%   Direction: 140°SE
Pressure: 30.01"   Gusts: NA
Location:  41.1947°N, 97.127°W
Report Text: KOLU 210235Z AUTO 14004KT 3SM OVC003 00/M02 A3001 RMK AO1
Loading
Personal Weather Stations






























Interactive Weather Map New forecast layout! Learn more

10-Day Weather Forecast

Advertisements
Track Severe Weather on mobile